createdAt,value
2022-10-02T00:00:37.356Z,9.70
2022-10-02T00:03:21.204Z,9.60
2022-10-02T00:06:00.196Z,9.60
2022-10-02T00:08:41.349Z,9.50
2022-10-02T00:11:19.700Z,9.60
2022-10-02T00:13:58.584Z,9.70
2022-10-02T00:16:40.178Z,9.70
2022-10-02T00:19:11.992Z,9.80
2022-10-02T00:22:24.257Z,9.80
2022-10-02T00:25:32.488Z,9.90
2022-10-02T00:28:48.341Z,9.90
2022-10-02T00:31:36.044Z,10.00
2022-10-02T00:34:44.640Z,10.00
2022-10-02T00:37:43.968Z,10.00
2022-10-02T00:40:43.942Z,10.10
2022-10-02T00:43:50.929Z,10.20
2022-10-02T00:46:45.209Z,10.20
2022-10-02T00:49:49.981Z,10.30
2022-10-02T00:53:02.822Z,10.30
2022-10-02T00:55:46.350Z,10.40
2022-10-02T00:58:56.666Z,10.40
2022-10-02T01:01:41.686Z,10.40
2022-10-02T01:04:23.222Z,10.50
2022-10-02T01:06:50.166Z,10.50
2022-10-02T01:09:17.945Z,10.50
2022-10-02T01:11:45.007Z,10.50
2022-10-02T01:14:14.829Z,10.60
2022-10-02T01:16:43.127Z,10.60
2022-10-02T01:19:40.083Z,10.60
2022-10-02T01:22:31.418Z,10.60
2022-10-02T01:25:06.245Z,10.60
2022-10-02T01:27:38.907Z,10.50
2022-10-02T01:30:12.721Z,10.60
2022-10-02T01:32:52.994Z,10.60
2022-10-02T01:35:35.385Z,10.60
2022-10-02T01:38:12.430Z,10.60
2022-10-02T01:40:41.872Z,10.60
2022-10-02T01:43:28.403Z,10.60
2022-10-02T01:46:41.186Z,10.60
2022-10-02T01:49:45.282Z,10.60
2022-10-02T01:53:02.242Z,10.60
2022-10-02T01:56:05.667Z,10.60
2022-10-02T01:59:16.760Z,10.60
2022-10-02T02:02:16.630Z,10.60
2022-10-02T02:05:00.164Z,10.70
2022-10-02T02:07:45.963Z,10.80
2022-10-02T02:10:41.638Z,10.80
2022-10-02T02:13:36.762Z,10.80
2022-10-02T02:16:10.675Z,10.80
2022-10-02T02:18:49.190Z,10.80
2022-10-02T02:21:47.497Z,10.80
2022-10-02T02:24:36.615Z,10.80
2022-10-02T02:27:07.387Z,10.80
2022-10-02T02:29:41.552Z,10.80
2022-10-02T02:32:16.675Z,10.80
2022-10-02T02:34:55.059Z,10.80
2022-10-02T02:37:29.334Z,10.80
2022-10-02T02:40:09.635Z,10.90
2022-10-02T02:43:06.755Z,10.90
2022-10-02T02:46:05.266Z,10.90
2022-10-02T02:48:45.124Z,10.90
2022-10-02T02:51:29.627Z,10.90
2022-10-02T02:54:22.980Z,11.00
2022-10-02T02:56:57.187Z,11.00
2022-10-02T02:59:31.331Z,11.00
2022-10-02T03:01:59.098Z,11.10
2022-10-02T03:04:26.279Z,11.10
2022-10-02T03:07:02.952Z,11.10
2022-10-02T03:09:33.438Z,11.10
2022-10-02T03:13:00.488Z,11.20
2022-10-02T03:15:58.625Z,11.10
2022-10-02T03:19:33.127Z,11.10
2022-10-02T03:22:31.064Z,11.20
2022-10-02T03:25:17.310Z,11.20
2022-10-02T03:28:31.846Z,11.20
2022-10-02T03:31:07.232Z,11.20
2022-10-02T03:33:37.235Z,11.20
2022-10-02T03:36:05.884Z,11.20
2022-10-02T03:38:34.301Z,11.20
2022-10-02T03:41:01.200Z,11.30
2022-10-02T03:43:30.916Z,11.30
2022-10-02T03:45:58.148Z,11.30
2022-10-02T03:48:25.537Z,11.30
2022-10-02T03:50:52.798Z,11.20
2022-10-02T03:53:30.729Z,11.20
2022-10-02T03:56:23.936Z,11.20
2022-10-02T03:58:59.598Z,11.20
2022-10-02T04:01:38.895Z,11.20
2022-10-02T04:04:17.708Z,11.20
2022-10-02T04:07:01.756Z,11.20
2022-10-02T04:09:43.332Z,11.20
2022-10-02T04:12:32.225Z,11.20
2022-10-02T04:16:05.645Z,11.20
2022-10-02T04:19:16.495Z,11.20
2022-10-02T04:22:10.481Z,11.30
2022-10-02T04:24:59.106Z,11.30
2022-10-02T04:28:01.416Z,11.30
2022-10-02T04:30:30.038Z,11.30
2022-10-02T04:33:18.910Z,11.20
2022-10-02T04:36:09.069Z,11.20
2022-10-02T04:39:22.706Z,11.20
2022-10-02T04:42:38.514Z,11.20
2022-10-02T04:45:51.625Z,11.20
2022-10-02T04:48:57.674Z,11.20
2022-10-02T04:52:23.515Z,11.20
2022-10-02T04:55:46.920Z,11.10
2022-10-02T04:59:13.179Z,11.10
2022-10-02T05:02:50.616Z,11.10
2022-10-02T05:06:31.622Z,11.10
2022-10-02T05:09:20.383Z,11.10
2022-10-02T05:11:59.674Z,11.10
2022-10-02T05:15:14.970Z,11.10
2022-10-02T05:18:17.876Z,11.00
2022-10-02T05:21:25.872Z,11.00
2022-10-02T05:24:41.938Z,11.00
2022-10-02T05:27:57.578Z,11.00
2022-10-02T05:30:25.031Z,11.10
2022-10-02T05:33:49.819Z,11.10
2022-10-02T05:37:28.950Z,11.10
2022-10-02T05:40:20.515Z,11.10
2022-10-02T05:43:04.003Z,11.10
2022-10-02T05:45:55.239Z,11.20
2022-10-02T05:48:44.741Z,11.20
2022-10-02T05:51:44.679Z,11.20
2022-10-02T05:54:57.778Z,11.30
2022-10-02T05:57:41.279Z,11.30
2022-10-02T06:00:47.800Z,11.30
2022-10-02T06:03:43.656Z,11.30
2022-10-02T06:06:39.002Z,11.40
2022-10-02T06:09:35.884Z,11.40
2022-10-02T06:12:26.585Z,11.40
2022-10-02T06:15:46.520Z,11.40
2022-10-02T06:18:23.623Z,11.40
2022-10-02T06:21:21.048Z,11.40
2022-10-02T06:23:58.076Z,11.40
2022-10-02T06:27:04.071Z,11.40
2022-10-02T06:29:43.544Z,11.40
2022-10-02T06:32:58.200Z,11.40
2022-10-02T06:35:57.820Z,11.40
2022-10-02T06:38:43.144Z,11.40
2022-10-02T06:41:57.792Z,11.50
2022-10-02T06:45:12.312Z,11.50
2022-10-02T06:48:22.182Z,11.50
2022-10-02T06:51:17.014Z,11.50
2022-10-02T06:54:53.472Z,11.50
2022-10-02T06:58:16.857Z,11.50
2022-10-02T07:01:10.193Z,11.50
2022-10-02T07:04:19.552Z,11.60
2022-10-02T07:07:14.027Z,11.60
2022-10-02T07:10:35.641Z,11.70
2022-10-02T07:13:22.168Z,11.80
2022-10-02T07:16:55.045Z,11.80
2022-10-02T07:20:02.412Z,11.80
2022-10-02T07:23:07.725Z,11.80
2022-10-02T07:26:21.737Z,11.80
2022-10-02T07:29:16.349Z,11.90
2022-10-02T07:32:22.504Z,11.90
2022-10-02T07:35:19.477Z,12.00
2022-10-02T07:38:15.466Z,12.00
2022-10-02T07:41:37.441Z,12.00
2022-10-02T07:44:57.277Z,11.90
2022-10-02T07:48:37.997Z,12.00
2022-10-02T07:51:50.404Z,12.00
2022-10-02T07:55:00.022Z,12.10
2022-10-02T07:57:45.575Z,12.10
2022-10-02T08:04:18.643Z,12.10
2022-10-02T08:06:49.450Z,12.20
2022-10-02T08:09:25.501Z,12.30
2022-10-02T08:12:39.855Z,12.30
2022-10-02T08:15:17.692Z,12.40
2022-10-02T08:18:16.465Z,12.40
2022-10-02T08:20:49.278Z,12.30
2022-10-02T08:23:39.110Z,12.30
2022-10-02T08:26:35.211Z,12.30
2022-10-02T08:29:32.399Z,12.20
2022-10-02T08:31:59.327Z,12.20
2022-10-02T08:34:27.926Z,12.10
2022-10-02T08:37:36.395Z,12.10
2022-10-02T08:41:04.922Z,12.10
2022-10-02T08:44:41.458Z,12.30
2022-10-02T08:48:09.383Z,12.30
2022-10-02T08:51:27.121Z,12.20
2022-10-02T08:54:42.660Z,12.20
2022-10-02T08:57:52.855Z,12.20
2022-10-02T09:00:30.668Z,12.20
2022-10-02T09:03:54.148Z,12.20
2022-10-02T09:07:10.861Z,12.20
2022-10-02T09:09:46.819Z,12.30
2022-10-02T09:13:32.856Z,12.40
2022-10-02T09:16:45.267Z,12.40
2022-10-02T09:20:04.415Z,12.60
2022-10-02T09:23:25.947Z,12.60
2022-10-02T09:25:53.807Z,12.70
2022-10-02T09:29:08.867Z,12.60
2022-10-02T09:32:29.880Z,12.60
2022-10-02T09:36:01.746Z,12.50
2022-10-02T09:39:31.403Z,12.50
2022-10-02T09:43:06.980Z,12.50
2022-10-02T09:46:34.033Z,12.60
2022-10-02T09:49:49.468Z,12.50
2022-10-02T09:53:04.504Z,12.70
2022-10-02T09:55:43.357Z,12.80
2022-10-02T09:59:21.432Z,12.70
2022-10-02T10:02:25.706Z,12.80
2022-10-02T10:05:41.392Z,12.80
2022-10-02T10:09:15.124Z,12.80
2022-10-02T10:12:05.284Z,12.80
2022-10-02T10:15:19.913Z,12.80
2022-10-02T10:18:42.765Z,12.80
2022-10-02T10:22:08.970Z,13.10
2022-10-02T10:25:20.733Z,13.10
2022-10-02T10:29:28.701Z,13.30
2022-10-02T10:32:38.680Z,13.30
2022-10-02T10:35:45.913Z,13.10
2022-10-02T10:38:49.457Z,12.90
2022-10-02T10:42:40.953Z,13.00
2022-10-02T10:45:58.793Z,13.00
2022-10-02T10:49:06.210Z,12.90
2022-10-02T10:52:17.673Z,12.90
2022-10-02T10:55:32.446Z,12.80
2022-10-02T10:58:53.882Z,12.60
2022-10-02T11:02:04.268Z,12.50
2022-10-02T11:05:16.573Z,12.40
2022-10-02T11:08:40.510Z,12.40
2022-10-02T11:11:57.523Z,12.40
2022-10-02T11:14:59.215Z,12.40
2022-10-02T11:17:49.335Z,12.50
2022-10-02T11:20:32.701Z,12.40
2022-10-02T11:23:51.558Z,12.30
2022-10-02T11:27:23.932Z,12.30
2022-10-02T11:30:20.306Z,12.30
2022-10-02T11:33:14.050Z,12.30
2022-10-02T11:36:05.160Z,12.40
2022-10-02T11:39:41.195Z,12.60
2022-10-02T11:42:45.603Z,12.80
2022-10-02T11:46:21.479Z,12.70
2022-10-02T11:49:41.582Z,12.60
2022-10-02T11:53:07.241Z,12.60
2022-10-02T11:56:26.668Z,12.70
2022-10-02T11:59:27.286Z,12.70
2022-10-02T12:02:19.841Z,12.60
2022-10-02T12:05:33.658Z,12.50
2022-10-02T12:08:50.886Z,12.40
2022-10-02T12:12:20.607Z,12.30
2022-10-02T12:15:44.535Z,12.30
2022-10-02T12:18:36.171Z,12.20
2022-10-02T12:21:51.804Z,12.10
2022-10-02T12:25:30.443Z,12.10
2022-10-02T12:28:33.950Z,12.00
2022-10-02T12:31:55.686Z,12.00
2022-10-02T12:35:17.824Z,12.00
2022-10-02T12:38:25.278Z,12.00
2022-10-02T12:42:02.308Z,12.00
2022-10-02T12:44:51.289Z,12.00
2022-10-02T12:48:00.652Z,12.00
2022-10-02T12:51:35.405Z,12.10
2022-10-02T12:55:06.740Z,12.10
2022-10-02T12:58:00.977Z,12.30
2022-10-02T13:01:04.814Z,12.50
2022-10-02T13:04:18.328Z,12.60
2022-10-02T13:07:33.502Z,12.60
2022-10-02T13:10:45.858Z,12.50
2022-10-02T13:14:26.295Z,12.30
2022-10-02T13:17:26.237Z,12.30
2022-10-02T13:20:26.157Z,12.30
2022-10-02T13:23:31.863Z,12.20
2022-10-02T13:26:56.868Z,12.20
2022-10-02T13:30:14.098Z,12.10
2022-10-02T13:33:21.971Z,12.10
2022-10-02T13:36:20.265Z,12.00
2022-10-02T13:39:21.292Z,12.10
2022-10-02T13:42:26.032Z,12.10
2022-10-02T13:45:21.981Z,12.10
2022-10-02T13:48:24.154Z,12.10
2022-10-02T13:51:25.445Z,12.00
2022-10-02T13:55:09.141Z,12.10
2022-10-02T13:58:23.441Z,12.10
2022-10-02T14:01:50.026Z,12.00
2022-10-02T14:05:16.937Z,12.00
2022-10-02T14:08:05.877Z,12.10
2022-10-02T14:11:38.416Z,12.30
2022-10-02T14:14:36.323Z,12.30
2022-10-02T14:17:46.722Z,12.30
2022-10-02T14:21:02.266Z,12.30
2022-10-02T14:24:06.006Z,12.10
2022-10-02T14:27:20.286Z,12.00
2022-10-02T14:30:15.537Z,12.00
2022-10-02T14:33:17.494Z,12.00
2022-10-02T14:36:32.098Z,11.90
2022-10-02T14:39:22.087Z,11.80
2022-10-02T14:42:10.727Z,11.80
2022-10-02T14:45:41.475Z,11.80
2022-10-02T14:48:25.903Z,11.80
2022-10-02T14:51:37.112Z,11.80
2022-10-02T14:54:58.522Z,11.80
2022-10-02T14:57:59.594Z,11.80
2022-10-02T15:00:49.977Z,11.90
2022-10-02T15:03:49.038Z,11.90
2022-10-02T15:07:05.019Z,11.90
2022-10-02T15:09:58.244Z,11.90
2022-10-02T15:12:47.886Z,11.90
2022-10-02T15:16:34.729Z,11.80
2022-10-02T15:19:34.688Z,11.80
2022-10-02T15:22:20.123Z,11.80
2022-10-02T15:24:57.624Z,11.80
2022-10-02T15:27:37.179Z,11.70
2022-10-02T15:30:04.139Z,11.70
2022-10-02T15:33:16.055Z,11.70
2022-10-02T15:36:14.589Z,11.70
2022-10-02T15:39:21.831Z,11.60
2022-10-02T15:42:10.123Z,11.60
2022-10-02T15:44:59.053Z,11.70
2022-10-02T15:47:52.911Z,11.60
2022-10-02T15:51:05.440Z,11.60
2022-10-02T15:53:58.143Z,11.60
2022-10-02T15:57:21.976Z,11.60
2022-10-02T16:00:19.700Z,11.60
2022-10-02T16:03:25.792Z,11.50
2022-10-02T16:06:08.548Z,11.50
2022-10-02T16:09:41.908Z,11.50
2022-10-02T16:13:23.964Z,11.50
2022-10-02T16:16:05.403Z,11.40
2022-10-02T16:19:22.323Z,11.40
2022-10-02T16:22:51.984Z,11.40
2022-10-02T16:25:51.903Z,11.40
2022-10-02T16:29:07.184Z,11.30
2022-10-02T16:32:37.332Z,11.30
2022-10-02T16:35:43.518Z,11.30
2022-10-02T16:38:46.754Z,11.30
2022-10-02T16:41:41.185Z,11.30
2022-10-02T16:44:43.412Z,11.20
2022-10-02T16:47:45.355Z,11.30
2022-10-02T16:50:12.128Z,11.20
2022-10-02T16:53:07.478Z,11.30
2022-10-02T16:55:45.045Z,11.30
2022-10-02T16:58:38.931Z,11.30
2022-10-02T17:02:06.029Z,11.30
2022-10-02T17:05:13.139Z,11.30
2022-10-02T17:08:09.461Z,11.30
2022-10-02T17:11:16.753Z,11.30
2022-10-02T17:14:21.886Z,11.20
2022-10-02T17:16:55.707Z,11.20
2022-10-02T17:19:44.125Z,11.20
2022-10-02T17:22:42.589Z,11.20
2022-10-02T17:25:52.514Z,11.20
2022-10-02T17:28:39.444Z,11.20
2022-10-02T17:31:51.663Z,11.20
2022-10-02T17:34:31.778Z,11.20
2022-10-02T17:37:13.397Z,11.20
2022-10-02T17:40:17.429Z,11.20
2022-10-02T17:43:08.912Z,11.20
2022-10-02T17:46:43.017Z,11.20
2022-10-02T17:49:43.210Z,11.20
2022-10-02T17:53:03.715Z,11.20
2022-10-02T17:56:19.038Z,11.20
2022-10-02T18:00:01.446Z,11.20
2022-10-02T18:03:20.974Z,11.20
2022-10-02T18:06:30.438Z,11.10
2022-10-02T18:10:03.498Z,11.10
2022-10-02T18:13:01.195Z,11.10
2022-10-02T18:15:59.098Z,11.10
2022-10-02T18:18:55.235Z,11.10
2022-10-02T18:22:00.055Z,11.10
2022-10-02T18:25:36.100Z,11.10
2022-10-02T18:29:02.397Z,11.10
2022-10-02T18:31:57.683Z,11.10
2022-10-02T18:35:10.699Z,11.10
2022-10-02T18:38:28.878Z,11.10
2022-10-02T18:41:49.322Z,11.10
2022-10-02T18:45:11.883Z,11.10
2022-10-02T18:48:27.411Z,11.10
2022-10-02T18:52:18.335Z,11.10
2022-10-02T18:55:39.763Z,11.10
2022-10-02T18:58:41.731Z,11.10
2022-10-02T19:01:32.556Z,11.10
2022-10-02T19:04:53.664Z,11.10
2022-10-02T19:07:51.899Z,11.10
2022-10-02T19:10:32.160Z,11.10
2022-10-02T19:13:21.987Z,11.10
2022-10-02T19:16:01.072Z,11.10
2022-10-02T19:18:32.727Z,11.00
2022-10-02T19:21:14.249Z,11.10
2022-10-02T19:24:16.084Z,11.10
2022-10-02T19:26:51.933Z,11.10
2022-10-02T19:29:58.648Z,11.10
2022-10-02T19:32:41.124Z,11.10
2022-10-02T19:35:20.704Z,11.10
2022-10-02T19:37:53.384Z,11.10
2022-10-02T19:40:33.206Z,11.00
2022-10-02T19:43:48.533Z,11.10
2022-10-02T19:46:17.173Z,11.00
2022-10-02T19:48:44.187Z,11.00
2022-10-02T19:51:21.432Z,11.00
2022-10-02T19:54:01.384Z,11.00
2022-10-02T19:56:44.752Z,11.00
2022-10-02T19:59:23.985Z,11.00
2022-10-02T20:02:00.839Z,11.00
2022-10-02T20:04:32.128Z,11.00
2022-10-02T20:07:01.902Z,11.00
2022-10-02T20:10:15.076Z,11.00
2022-10-02T20:13:12.229Z,11.00
2022-10-02T20:16:36.427Z,11.10
2022-10-02T20:19:09.253Z,11.00
2022-10-02T20:21:52.133Z,11.00
2022-10-02T20:25:16.137Z,11.00
2022-10-02T20:27:55.798Z,11.00
2022-10-02T20:30:29.936Z,11.00
2022-10-02T20:33:36.318Z,11.00
2022-10-02T20:36:16.958Z,11.00
2022-10-02T20:39:01.880Z,11.00
2022-10-02T20:42:16.855Z,11.00
2022-10-02T20:44:43.790Z,11.00
2022-10-02T20:48:08.558Z,11.10
2022-10-02T20:50:54.801Z,11.10
2022-10-02T20:53:45.803Z,11.00
2022-10-02T20:56:50.826Z,11.00
2022-10-02T21:00:15.301Z,11.00
2022-10-02T21:03:19.390Z,11.00
2022-10-02T21:06:39.201Z,10.90
2022-10-02T21:09:53.342Z,10.90
2022-10-02T21:13:25.071Z,10.90
2022-10-02T21:16:42.993Z,10.90
2022-10-02T21:19:53.686Z,10.90
2022-10-02T21:23:16.194Z,10.90
2022-10-02T21:27:08.086Z,10.80
2022-10-02T21:30:16.703Z,10.80
2022-10-02T21:33:16.385Z,10.80
2022-10-02T21:35:49.310Z,10.80
2022-10-02T21:39:12.199Z,10.90
2022-10-02T21:42:24.667Z,10.80
2022-10-02T21:46:16.380Z,10.80
2022-10-02T21:49:43.487Z,10.80
2022-10-02T21:53:09.456Z,10.70
2022-10-02T21:56:31.091Z,10.80
2022-10-02T21:59:29.956Z,10.80
2022-10-02T22:02:59.247Z,10.80
2022-10-02T22:05:59.342Z,10.80
2022-10-02T22:09:26.612Z,10.80
2022-10-02T22:12:31.763Z,10.80
2022-10-02T22:15:25.627Z,10.80
2022-10-02T22:18:01.255Z,10.90
2022-10-02T22:20:56.177Z,10.80
2022-10-02T22:23:53.894Z,10.80
2022-10-02T22:27:25.781Z,10.80
2022-10-02T22:29:57.695Z,10.70
2022-10-02T22:33:13.285Z,10.70
2022-10-02T22:36:46.531Z,10.70
2022-10-02T22:39:25.256Z,10.70
2022-10-02T22:41:59.235Z,10.70
2022-10-02T22:44:49.147Z,10.70
2022-10-02T22:47:42.013Z,10.70
2022-10-02T22:50:20.341Z,10.70
2022-10-02T22:53:07.901Z,10.70
2022-10-02T22:55:52.908Z,10.70
2022-10-02T22:58:45.612Z,10.70
2022-10-02T23:01:42.634Z,10.70
2022-10-02T23:05:05.124Z,10.70
2022-10-02T23:08:00.646Z,10.60
2022-10-02T23:10:51.949Z,10.60
2022-10-02T23:13:57.782Z,10.60
2022-10-02T23:17:00.168Z,10.60
2022-10-02T23:20:03.359Z,10.60
2022-10-02T23:23:03.004Z,10.60
2022-10-02T23:25:48.185Z,10.60
2022-10-02T23:28:56.769Z,10.60
2022-10-02T23:31:41.004Z,10.60
2022-10-02T23:34:51.074Z,10.60
2022-10-02T23:37:37.581Z,10.60
2022-10-02T23:41:11.301Z,10.60
2022-10-02T23:44:23.605Z,10.70
2022-10-02T23:46:50.395Z,10.60
2022-10-02T23:49:57.506Z,10.50
2022-10-02T23:53:14.712Z,10.50
2022-10-02T23:56:17.258Z,10.50
2022-10-02T23:59:30.714Z,10.50
